createdAt,value
2018-12-18T00:03:47.048Z,5.50
2018-12-18T00:08:25.760Z,5.60
2018-12-18T00:13:04.542Z,5.60
2018-12-18T00:17:43.471Z,5.60
2018-12-18T00:22:22.196Z,5.60
2018-12-18T00:27:00.985Z,5.60
2018-12-18T00:31:39.784Z,5.60
2018-12-18T00:36:18.584Z,5.60
2018-12-18T00:40:57.439Z,5.70
2018-12-18T00:45:36.584Z,5.70
2018-12-18T00:50:15.295Z,5.70
2018-12-18T00:54:54.063Z,5.70
2018-12-18T00:59:32.827Z,5.70
2018-12-18T01:04:11.517Z,5.60
2018-12-18T01:08:50.363Z,5.60
2018-12-18T01:13:29.104Z,5.60
2018-12-18T01:18:07.825Z,5.60
2018-12-18T01:22:46.496Z,5.60
2018-12-18T01:27:25.128Z,5.60
2018-12-18T01:32:03.859Z,5.60
2018-12-18T01:36:42.568Z,5.60
2018-12-18T01:41:21.323Z,5.60
2018-12-18T01:46:00.053Z,5.60
2018-12-18T01:50:38.881Z,5.50
2018-12-18T01:55:17.762Z,5.50
2018-12-18T01:59:56.432Z,5.50
2018-12-18T02:04:35.224Z,5.50
2018-12-18T02:09:14.096Z,5.40
2018-12-18T02:13:52.860Z,5.40
2018-12-18T02:18:31.696Z,5.40
2018-12-18T02:23:10.572Z,5.40
2018-12-18T02:27:49.292Z,5.30
2018-12-18T02:32:27.948Z,5.30
2018-12-18T02:37:06.576Z,5.20
2018-12-18T02:41:45.432Z,5.20
2018-12-18T02:46:24.243Z,5.10
2018-12-18T02:51:03.089Z,5.10
2018-12-18T02:55:41.763Z,5.00
2018-12-18T03:00:20.652Z,5.00
2018-12-18T03:04:59.693Z,5.00
2018-12-18T03:09:38.405Z,5.00
2018-12-18T03:14:17.177Z,5.00
2018-12-18T03:18:55.900Z,5.00
2018-12-18T03:23:34.749Z,4.90
2018-12-18T03:28:13.515Z,5.00
2018-12-18T03:32:52.521Z,4.90
2018-12-18T03:37:31.385Z,4.80
2018-12-18T03:42:10.239Z,4.70
2018-12-18T03:46:48.883Z,4.60
2018-12-18T03:51:27.531Z,4.40
2018-12-18T03:56:06.174Z,4.20
2018-12-18T04:00:44.932Z,4.00
2018-12-18T04:05:23.732Z,3.80
2018-12-18T04:10:02.505Z,3.70
2018-12-18T04:14:41.208Z,3.60
2018-12-18T04:19:20.142Z,3.40
2018-12-18T04:23:58.897Z,3.30
2018-12-18T04:28:38.062Z,3.10
2018-12-18T04:33:16.643Z,3.00
2018-12-18T04:37:55.458Z,3.00
2018-12-18T04:42:34.107Z,2.90
2018-12-18T04:47:12.920Z,2.80
2018-12-18T04:51:51.582Z,2.70
2018-12-18T04:56:30.489Z,2.60
2018-12-18T05:01:09.205Z,2.50
2018-12-18T05:05:47.958Z,2.50
2018-12-18T05:10:27.386Z,2.40
2018-12-18T05:15:06.426Z,2.20
2018-12-18T05:19:45.054Z,2.10
2018-12-18T05:24:23.712Z,2.00
2018-12-18T05:29:02.571Z,2.00
2018-12-18T05:33:41.324Z,1.90
2018-12-18T05:38:20.236Z,1.80
2018-12-18T05:42:59.079Z,1.70
2018-12-18T05:47:38.003Z,1.60
2018-12-18T05:52:16.911Z,1.50
2018-12-18T05:56:55.631Z,1.50
2018-12-18T06:01:34.484Z,1.40
2018-12-18T06:06:13.179Z,1.40
2018-12-18T06:10:52.259Z,1.30
2018-12-18T06:15:31.128Z,1.30
2018-12-18T06:20:09.961Z,1.30
2018-12-18T06:24:48.774Z,1.40
2018-12-18T06:29:27.671Z,1.50
2018-12-18T06:34:06.589Z,1.70
2018-12-18T06:38:45.225Z,1.90
2018-12-18T06:43:23.979Z,2.10
2018-12-18T06:48:02.784Z,2.30
2018-12-18T06:52:41.692Z,2.40
2018-12-18T06:57:20.497Z,2.50
2018-12-18T07:01:59.161Z,2.60
2018-12-18T07:06:37.843Z,2.70
2018-12-18T07:11:16.744Z,2.80
2018-12-18T07:15:55.611Z,2.80
2018-12-18T07:20:34.399Z,2.90
2018-12-18T07:25:13.328Z,3.00
2018-12-18T07:29:52.289Z,3.10
2018-12-18T07:34:33.491Z,3.10
2018-12-18T07:39:12.003Z,3.10
2018-12-18T07:43:50.755Z,3.00
2018-12-18T07:48:29.492Z,3.00
2018-12-18T07:53:08.328Z,2.90
2018-12-18T07:57:47.245Z,2.90
2018-12-18T08:02:26.083Z,2.90
2018-12-18T08:07:04.708Z,2.90
2018-12-18T08:11:43.516Z,3.00
2018-12-18T08:16:22.351Z,3.10
2018-12-18T08:21:00.996Z,3.10
2018-12-18T08:25:39.803Z,3.20
2018-12-18T08:30:18.507Z,3.30
2018-12-18T08:34:57.371Z,3.40
2018-12-18T08:39:36.080Z,3.40
2018-12-18T08:44:15.048Z,3.50
2018-12-18T08:48:53.727Z,3.50
2018-12-18T08:53:32.491Z,3.70
2018-12-18T08:58:11.267Z,3.70
2018-12-18T09:02:50.053Z,3.80
2018-12-18T09:07:28.745Z,3.70
2018-12-18T09:12:09.476Z,3.70
2018-12-18T09:16:53.896Z,3.70
2018-12-18T09:21:32.768Z,3.80
2018-12-18T09:26:11.397Z,3.90
2018-12-18T09:30:50.217Z,3.90
2018-12-18T09:35:29.041Z,3.90
2018-12-18T09:40:10.412Z,3.90
2018-12-18T09:44:49.204Z,4.10
2018-12-18T09:49:28.001Z,4.30
2018-12-18T09:54:06.742Z,4.50
2018-12-18T09:58:45.458Z,4.70
2018-12-18T10:03:24.293Z,4.90
2018-12-18T10:08:03.076Z,5.20
2018-12-18T10:12:45.425Z,5.50
2018-12-18T10:17:24.508Z,5.80
2018-12-18T10:22:03.301Z,5.90
2018-12-18T10:26:42.173Z,5.90
2018-12-18T10:31:20.840Z,5.90
2018-12-18T10:36:02.930Z,6.00
2018-12-18T10:40:40.508Z,6.10
2018-12-18T10:45:19.359Z,6.20
2018-12-18T10:49:58.053Z,6.30
2018-12-18T10:54:36.694Z,6.30
2018-12-18T10:59:15.359Z,6.30
2018-12-18T11:03:54.127Z,6.40
2018-12-18T11:08:32.728Z,6.50
2018-12-18T11:13:16.499Z,6.50
2018-12-18T11:17:55.323Z,6.60
2018-12-18T11:22:34.107Z,6.80
2018-12-18T11:27:12.996Z,7.10
2018-12-18T11:31:51.775Z,7.30
2018-12-18T11:36:30.473Z,7.50
2018-12-18T11:41:09.260Z,7.70
2018-12-18T11:45:48.080Z,7.70
2018-12-18T11:50:26.824Z,7.70
2018-12-18T11:55:05.704Z,7.70
2018-12-18T11:59:44.424Z,7.70
2018-12-18T12:04:23.272Z,7.70
2018-12-18T12:09:02.089Z,7.70
2018-12-18T12:13:40.744Z,7.80
2018-12-18T12:18:19.532Z,7.80
2018-12-18T12:22:58.312Z,7.80
2018-12-18T12:32:48.294Z,7.60
2018-12-18T12:37:27.080Z,7.50
2018-12-18T12:42:05.800Z,7.40
2018-12-18T12:46:44.476Z,7.40
2018-12-18T12:51:23.384Z,7.30
2018-12-18T12:56:02.085Z,7.30
2018-12-18T13:00:40.814Z,7.40
2018-12-18T13:05:19.556Z,7.40
2018-12-18T13:09:58.396Z,7.30
2018-12-18T13:14:37.336Z,7.40
2018-12-18T13:19:16.203Z,7.30
2018-12-18T13:23:54.982Z,7.30
2018-12-18T13:28:33.627Z,7.40
2018-12-18T13:33:12.393Z,7.40
2018-12-18T13:37:51.325Z,7.40
2018-12-18T13:42:30.232Z,7.30
2018-12-18T13:47:09.851Z,7.30
2018-12-18T13:51:48.560Z,7.20
2018-12-18T13:56:27.279Z,7.10
2018-12-18T14:01:06.870Z,7.10
2018-12-18T14:05:46.050Z,6.90
2018-12-18T14:10:24.905Z,6.90
2018-12-18T14:15:04.348Z,6.80
2018-12-18T14:19:43.086Z,6.70
2018-12-18T14:24:21.786Z,6.70
2018-12-18T14:29:01.377Z,6.70
2018-12-18T14:33:41.175Z,6.60
2018-12-18T14:38:19.971Z,6.50
2018-12-18T14:42:58.757Z,6.40
2018-12-18T14:47:42.351Z,6.30
2018-12-18T14:52:25.026Z,6.20
2018-12-18T14:57:08.989Z,6.10
2018-12-18T15:01:51.096Z,6.00
2018-12-18T15:06:29.860Z,6.00
2018-12-18T15:11:09.253Z,5.80
2018-12-18T15:15:48.463Z,5.70
2018-12-18T15:20:27.287Z,5.60
2018-12-18T15:25:06.468Z,5.40
2018-12-18T15:29:45.705Z,5.20
2018-12-18T15:34:24.798Z,5.00
2018-12-18T15:39:05.985Z,4.80
2018-12-18T15:43:44.797Z,4.60
2018-12-18T15:48:24.035Z,4.50
2018-12-18T15:53:04.720Z,4.50
2018-12-18T15:57:55.363Z,4.50
2018-12-18T16:02:34.112Z,4.40
2018-12-18T16:07:16.091Z,4.30
2018-12-18T16:11:55.070Z,4.20
2018-12-18T16:16:33.902Z,4.20
2018-12-18T16:21:14.413Z,4.10
2018-12-18T16:25:53.222Z,3.90
2018-12-18T16:30:32.085Z,3.70
2018-12-18T16:35:11.231Z,3.50
2018-12-18T16:39:50.794Z,3.40
2018-12-18T16:44:29.775Z,3.20
2018-12-18T16:49:10.826Z,3.10
2018-12-18T16:53:49.683Z,2.90
2018-12-18T16:58:28.811Z,2.80
2018-12-18T17:03:10.511Z,2.60
2018-12-18T17:07:49.278Z,2.50
2018-12-18T17:12:28.400Z,2.30
2018-12-18T17:17:07.287Z,2.30
2018-12-18T17:21:46.010Z,2.20
2018-12-18T17:26:24.735Z,2.10
2018-12-18T17:31:03.603Z,2.00
2018-12-18T17:35:43.707Z,1.90
2018-12-18T17:40:22.491Z,1.70
2018-12-18T17:45:01.225Z,1.60
2018-12-18T17:49:40.326Z,1.60
2018-12-18T17:54:20.191Z,1.50
2018-12-18T17:58:59.024Z,1.40
2018-12-18T18:03:39.828Z,1.40
2018-12-18T18:08:18.986Z,1.30
2018-12-18T18:12:57.837Z,1.20
2018-12-18T18:17:36.710Z,1.10
2018-12-18T18:22:15.487Z,1.10
2018-12-18T18:26:54.304Z,1.00
2018-12-18T18:31:33.862Z,0.90
2018-12-18T18:36:14.714Z,0.90
2018-12-18T18:40:53.866Z,0.80
2018-12-18T18:45:32.876Z,0.80
2018-12-18T18:50:11.597Z,0.80
2018-12-18T18:54:50.496Z,0.80
2018-12-18T18:59:29.388Z,0.80
2018-12-18T19:04:08.376Z,0.70
2018-12-18T19:08:47.220Z,0.60
2018-12-18T19:13:25.993Z,0.50
2018-12-18T19:18:06.230Z,0.50
2018-12-18T19:22:45.191Z,0.50
2018-12-18T19:27:24.204Z,0.40
2018-12-18T19:32:03.333Z,0.30
2018-12-18T19:36:42.292Z,0.30
2018-12-18T19:41:21.239Z,0.30
2018-12-18T19:46:00.281Z,0.30
2018-12-18T19:50:39.080Z,0.30
2018-12-18T19:55:18.601Z,0.40
2018-12-18T19:59:57.688Z,0.40
2018-12-18T20:04:36.904Z,0.50
2018-12-18T20:09:15.869Z,0.60
2018-12-18T20:13:54.580Z,0.70
2018-12-18T20:18:35.112Z,0.70
2018-12-18T20:23:15.420Z,0.70
2018-12-18T20:27:55.565Z,0.60
2018-12-18T20:32:34.959Z,0.50
2018-12-18T20:37:18.197Z,0.50
2018-12-18T20:41:56.291Z,0.60
2018-12-18T20:46:35.254Z,0.60
2018-12-18T20:51:16.027Z,0.50
2018-12-18T20:55:55.668Z,0.60
2018-12-18T21:00:34.602Z,0.60
2018-12-18T21:05:14.259Z,0.70
2018-12-18T21:09:53.145Z,0.80
2018-12-18T21:14:31.943Z,0.80
2018-12-18T21:19:11.123Z,0.80
2018-12-18T21:23:50.756Z,0.80
2018-12-18T21:28:29.703Z,0.90
2018-12-18T21:33:08.428Z,0.90
2018-12-18T21:37:47.828Z,1.00
2018-12-18T21:42:26.803Z,1.10
2018-12-18T21:47:05.664Z,1.20
2018-12-18T21:51:44.834Z,1.20
2018-12-18T21:56:23.562Z,1.30
2018-12-18T22:01:02.518Z,1.30
2018-12-18T22:05:41.994Z,1.30
2018-12-18T22:10:21.258Z,1.30
2018-12-18T22:15:01.293Z,1.40
2018-12-18T22:19:40.226Z,1.50
2018-12-18T22:24:18.982Z,1.50
2018-12-18T22:28:58.053Z,1.60
2018-12-18T22:33:36.680Z,1.60
2018-12-18T22:38:16.847Z,1.60
2018-12-18T22:42:55.850Z,1.60
2018-12-18T22:47:34.675Z,1.70
2018-12-18T22:52:15.114Z,1.60
2018-12-18T22:56:56.296Z,1.60
2018-12-18T23:01:38.080Z,1.70
2018-12-18T23:06:16.677Z,1.70
2018-12-18T23:10:55.405Z,1.70
2018-12-18T23:15:34.100Z,1.80
2018-12-18T23:20:12.912Z,1.80
2018-12-18T23:24:51.671Z,1.80
2018-12-18T23:29:30.643Z,1.90
2018-12-18T23:34:09.469Z,1.90
2018-12-18T23:38:48.995Z,1.90
2018-12-18T23:43:27.706Z,1.80
2018-12-18T23:48:06.562Z,1.90
2018-12-18T23:52:45.314Z,1.80
2018-12-18T23:57:24.137Z,1.80
